LFKF/FSC METAR and TAF weather

Enter ICAO airport designator
Station Type Date Time Source
LFKF METAR 2022/12/04 05:30 UTC NOAA

LFKF 040530Z AUTO 02002KT 9999 2400 FEW019/// SCT036/// BKN058/// ///CB 06/06 Q1011 BECMG SCT020 BKN040


Station Type Date Time Source
LFKF Decoded METAR 2022/12/04 05:30 UTC NOAA

Figari, France (LFKF) 41-30N 009-06E 23M
Dec 04, 2022 - 12:30 AM EST / 2022.12.04 0530 UTC
Wind: from the NNE (020 degrees) at 2 MPH (2 KT):0
Visibility: greater than 7 mile(s):0
Sky conditions: mostly cloudy
Weather: Cumulonimbus clouds observed
Temperature: 42 F (6 C)
Dew Point: 42 F (6 C)
Relative Humidity: 100%
Pressure (altimeter): 29.85 in. Hg (1011 hPa)
ob: LFKF 040530Z AUTO 02002KT 9999 2400 FEW019/// SCT036/// BKN058/// ///CB 06/06 Q1011 BECMG SCT020 BKN040
cycle: 5

Station Type Date Time Source
LFKF TAF 2022/12/04 05:26 UTC NOAA

TAF
AMD LFKF 040522Z 0405/0503 VRB03KT 9999 SCT020 BKN040
TEMPO 0405/0415 SHRA BKN014 FEW030CB
BECMG 0408/0410 23010KT

Example: see airport list